createdAt,value
2023-04-01T00:02:39.403Z,95.50
2023-04-01T00:18:52.787Z,95.75
2023-04-01T00:35:12.006Z,95.28
2023-04-01T00:40:47.303Z,95.15
2023-04-01T00:45:52.205Z,94.84
2023-04-01T00:51:35.258Z,95.30
2023-04-01T00:57:01.570Z,95.27
2023-04-01T01:02:17.973Z,95.84
2023-04-01T01:09:15.134Z,95.42
2023-04-01T01:15:14.008Z,95.40
2023-04-01T01:21:12.749Z,96.62
2023-04-01T01:27:11.135Z,96.10
2023-04-01T01:33:15.890Z,96.14
2023-04-01T01:38:35.587Z,96.40
2023-04-01T01:43:58.896Z,96.88
2023-04-01T01:49:14.294Z,96.48
2023-04-01T01:54:32.636Z,96.83
2023-04-01T01:59:57.902Z,96.38
2023-04-01T02:05:19.107Z,96.19
2023-04-01T02:10:49.402Z,95.48
2023-04-01T02:16:03.900Z,95.10
2023-04-01T02:21:31.918Z,95.37
2023-04-01T02:27:10.194Z,95.10
2023-04-01T02:32:54.751Z,95.08
2023-04-01T02:38:12.478Z,95.46
2023-04-01T02:43:27.253Z,94.15
2023-04-01T02:48:49.996Z,94.42
2023-04-01T02:59:16.108Z,95.07
2023-04-01T03:04:36.738Z,94.42
2023-04-01T03:10:52.118Z,94.64
2023-04-01T03:16:48.095Z,95.58
2023-04-01T03:22:04.861Z,95.17
2023-04-01T03:27:16.059Z,95.02
2023-04-01T03:32:22.329Z,94.56
2023-04-01T03:37:34.407Z,94.41
2023-04-01T03:48:04.801Z,95.51
2023-04-01T03:53:14.788Z,95.42
2023-04-01T04:04:13.822Z,95.79
2023-04-01T04:09:41.852Z,95.60
2023-04-01T04:21:01.976Z,96.05
2023-04-01T04:26:27.151Z,95.06
2023-04-01T04:31:53.072Z,95.76
2023-04-01T04:37:23.853Z,95.64
2023-04-01T04:42:33.358Z,96.27
2023-04-01T04:47:42.957Z,96.37
2023-04-01T04:53:20.922Z,96.75
2023-04-01T04:58:45.633Z,96.89
2023-04-01T05:03:47.845Z,96.18
2023-04-01T05:08:49.762Z,97.26
2023-04-01T05:13:51.532Z,97.70
2023-04-01T05:18:53.302Z,97.51
2023-04-01T05:23:55.161Z,97.74
2023-04-01T05:28:57.003Z,98.17
2023-04-01T05:33:58.784Z,98.77
2023-04-01T05:39:00.692Z,98.15
2023-04-01T05:44:03.070Z,98.18
2023-04-01T05:49:04.946Z,98.02
2023-04-01T05:54:07.165Z,98.70
2023-04-01T05:59:12.965Z,98.24
2023-04-01T06:04:19.149Z,98.29
2023-04-01T06:09:31.344Z,98.36
2023-04-01T06:15:11.685Z,98.36
2023-04-01T06:20:31.345Z,97.10
2023-04-01T06:26:22.447Z,96.61
2023-04-01T06:31:52.201Z,97.42
2023-04-01T06:37:21.806Z,97.32
2023-04-01T06:42:51.410Z,97.00
2023-04-01T06:48:32.302Z,97.20
2023-04-01T06:54:03.707Z,96.88
2023-04-01T06:59:19.973Z,97.08
2023-04-01T07:04:39.178Z,97.42
2023-04-01T07:09:52.381Z,97.12
2023-04-01T07:14:58.340Z,97.70
2023-04-01T07:20:19.909Z,97.76
2023-04-01T07:25:27.378Z,96.99
2023-04-01T07:30:59.767Z,97.33
2023-04-01T07:36:52.380Z,97.36
2023-04-01T07:42:48.031Z,97.58
2023-04-01T07:48:45.854Z,97.48
2023-04-01T07:54:45.546Z,96.74
2023-04-01T08:00:00.356Z,96.49
2023-04-01T08:05:29.436Z,94.80
2023-04-01T08:11:16.954Z,95.19
2023-04-01T08:16:33.604Z,94.16
2023-04-01T08:21:53.630Z,93.28
2023-04-01T08:27:04.659Z,93.80
2023-04-01T08:32:23.526Z,93.40
2023-04-01T08:37:39.888Z,94.37
2023-04-01T08:42:53.863Z,93.99
2023-04-01T08:48:36.300Z,93.75
2023-04-01T08:54:51.008Z,93.35
2023-04-01T09:00:15.568Z,94.17
2023-04-01T09:05:38.744Z,94.77
2023-04-01T09:10:49.413Z,95.15
2023-04-01T09:16:49.659Z,95.89
2023-04-01T09:22:15.974Z,96.58
2023-04-01T09:27:56.854Z,94.96
2023-04-01T09:34:02.170Z,93.94
2023-04-01T09:39:50.053Z,92.93
2023-04-01T09:45:36.521Z,93.24
2023-04-01T09:51:13.340Z,93.75
2023-04-01T09:57:09.203Z,92.52
2023-04-01T10:03:09.772Z,94.15
2023-04-01T10:08:47.930Z,93.79
2023-04-01T10:14:36.583Z,93.92
2023-04-01T10:20:10.804Z,94.00
2023-04-01T10:26:13.919Z,93.38
2023-04-01T10:32:05.645Z,93.28
2023-04-01T10:37:47.602Z,94.17
2023-04-01T10:43:31.147Z,93.39
2023-04-01T10:49:09.388Z,93.76
2023-04-01T10:54:46.317Z,95.13
2023-04-01T11:00:30.796Z,94.16
2023-04-01T11:06:03.225Z,94.98
2023-04-01T11:11:47.999Z,96.29
2023-04-01T11:17:39.329Z,94.54
2023-04-01T11:23:23.667Z,95.76
2023-04-01T11:29:00.850Z,95.44
2023-04-01T11:34:44.113Z,95.67
2023-04-01T11:40:43.847Z,94.76
2023-04-01T11:46:12.400Z,94.48
2023-04-01T11:51:32.340Z,95.16
2023-04-01T11:57:13.308Z,94.23
2023-04-01T12:02:27.109Z,95.64
2023-04-01T12:07:59.761Z,95.18
2023-04-01T12:13:45.300Z,94.61
2023-04-01T12:19:32.202Z,95.38
2023-04-01T12:25:07.735Z,94.87
2023-04-01T12:30:55.109Z,95.02
2023-04-01T12:36:28.614Z,95.47
2023-04-01T12:42:29.694Z,95.42
2023-04-01T12:48:16.194Z,94.55
2023-04-01T12:54:04.512Z,94.59
2023-04-01T12:59:43.268Z,95.11
2023-04-01T13:05:47.019Z,94.71
2023-04-01T13:11:21.584Z,93.94
2023-04-01T13:17:18.047Z,94.14
2023-04-01T13:23:03.438Z,95.20
2023-04-01T13:28:33.506Z,94.25
2023-04-01T13:34:40.236Z,93.75
2023-04-01T13:41:01.630Z,93.84
2023-04-01T13:46:39.591Z,93.42
2023-04-01T13:52:32.224Z,94.21
2023-04-01T13:58:44.031Z,94.26
2023-04-01T14:04:42.015Z,92.33
2023-04-01T14:10:03.943Z,93.10
2023-04-01T14:15:39.884Z,93.81
2023-04-01T14:21:22.030Z,93.92
2023-04-01T14:27:10.659Z,93.39
2023-04-01T14:33:21.223Z,92.49
2023-04-01T14:39:20.613Z,92.15
2023-04-01T14:44:48.047Z,92.23
2023-04-01T14:50:31.879Z,92.40
2023-04-01T14:55:39.847Z,91.33
2023-04-01T15:01:43.138Z,92.01
2023-04-01T15:07:26.061Z,92.43
2023-04-01T15:13:00.976Z,93.09
2023-04-01T15:18:28.873Z,93.61
2023-04-01T15:23:57.778Z,92.09
2023-04-01T15:29:20.457Z,92.28
2023-04-01T15:35:30.743Z,91.88
2023-04-01T15:40:55.486Z,91.36
2023-04-01T15:46:44.099Z,91.19
2023-04-01T15:52:19.799Z,91.10
2023-04-01T15:58:05.936Z,91.42
2023-04-01T16:03:53.504Z,89.98
2023-04-01T16:10:02.491Z,90.50
2023-04-01T16:15:45.598Z,91.24
2023-04-01T16:20:53.230Z,91.14
2023-04-01T16:26:19.846Z,91.28
2023-04-01T16:31:38.131Z,88.92
2023-04-01T16:37:33.580Z,89.49
2023-04-01T16:43:18.926Z,91.58
2023-04-01T16:48:56.412Z,92.10
2023-04-01T16:54:57.791Z,91.65
2023-04-01T17:00:28.838Z,92.22
2023-04-01T17:06:04.779Z,92.50
2023-04-01T17:11:34.391Z,92.35
2023-04-01T17:17:01.304Z,91.58
2023-04-01T17:22:43.238Z,90.41
2023-04-01T17:28:30.677Z,90.48
2023-04-01T17:33:59.386Z,90.04
2023-04-01T17:39:49.188Z,90.55
2023-04-01T17:45:12.016Z,90.66
2023-04-01T17:50:48.974Z,90.86
2023-04-01T17:56:17.713Z,90.28
2023-04-01T18:01:55.099Z,90.71
2023-04-01T18:07:37.224Z,91.21
2023-04-01T18:13:22.966Z,91.12
2023-04-01T18:18:54.181Z,92.18
2023-04-01T18:24:26.250Z,91.98
2023-04-01T18:30:03.259Z,91.49
2023-04-01T18:35:53.481Z,91.26
2023-04-01T18:41:29.479Z,91.74
2023-04-01T18:47:44.594Z,91.28
2023-04-01T18:52:48.671Z,92.29
2023-04-01T18:58:20.712Z,91.46
2023-04-01T19:04:10.422Z,91.34
2023-04-01T19:09:50.159Z,90.52
2023-04-01T19:15:16.740Z,90.76
2023-04-01T19:20:43.726Z,91.73
2023-04-01T19:26:30.804Z,91.55
2023-04-01T19:31:45.606Z,91.97
2023-04-01T19:36:59.729Z,92.74
2023-04-01T19:42:32.899Z,91.76
2023-04-01T19:48:10.790Z,92.00
2023-04-01T19:53:59.747Z,92.11
2023-04-01T19:59:58.410Z,92.22
2023-04-01T20:05:31.484Z,92.44
2023-04-01T20:10:53.106Z,93.11
2023-04-01T20:16:22.696Z,92.98
2023-04-01T20:21:47.524Z,93.61
2023-04-01T20:27:18.520Z,93.22
2023-04-01T20:32:35.784Z,93.06
2023-04-01T20:38:07.598Z,93.01
2023-04-01T20:43:42.565Z,93.45
2023-04-01T20:49:28.537Z,93.16
2023-04-01T20:54:39.087Z,93.06
2023-04-01T21:00:23.306Z,93.25
2023-04-01T21:06:28.905Z,92.92
2023-04-01T21:11:51.840Z,92.88
2023-04-01T21:17:27.360Z,92.41
2023-04-01T21:23:02.385Z,93.18
2023-04-01T21:28:54.034Z,93.11
2023-04-01T21:34:31.700Z,92.48
2023-04-01T21:40:23.110Z,91.71
2023-04-01T21:46:37.352Z,91.18
2023-04-01T21:52:39.162Z,91.26
2023-04-01T21:58:11.224Z,91.49
2023-04-01T22:03:47.767Z,90.66
2023-04-01T22:09:32.104Z,91.09
2023-04-01T22:15:00.462Z,90.12
2023-04-01T22:20:26.470Z,89.59
2023-04-01T22:25:56.486Z,89.29
2023-04-01T22:31:03.926Z,88.60
2023-04-01T22:36:45.935Z,88.48
2023-04-01T22:42:19.156Z,87.66
2023-04-01T22:47:40.496Z,87.83
2023-04-01T22:52:52.621Z,86.52
2023-04-01T22:58:18.181Z,86.94
2023-04-01T23:03:28.597Z,87.02
2023-04-01T23:09:00.750Z,86.69
2023-04-01T23:14:56.923Z,87.46
2023-04-01T23:20:30.035Z,86.64
2023-04-01T23:26:07.049Z,85.37
2023-04-01T23:31:49.730Z,86.14
2023-04-01T23:37:17.139Z,86.14
2023-04-01T23:42:42.207Z,86.48
2023-04-01T23:47:49.255Z,85.06
2023-04-01T23:53:11.971Z,86.54
2023-04-01T23:58:27.612Z,85.88
